Time;durP1;ratioP1;P1;durP2;ratioP2;P2;SDS_P1;SDS_P2;PMS_P1;PMS_P2;Temp;Humidity;BMP_temperature;BMP_pressure;BME280_temperature;BME280_humidity;BME280_pressure;Samples;Min_cycle;Max_cycle;Signal;HPM_P1;HPM_P2
2021/05/14 00:00:38;;;;;;;8.80;5.18;;;;;;;;;;5051554;28;20041;-74
2021/05/14 00:03:04;;;;;;;7.43;5.60;;;;;;;;;;5052807;28;20067;-74
2021/05/14 00:05:31;;;;;;;8.20;5.50;;;;;;;;;;5052247;28;20070;-74
2021/05/14 00:07:57;;;;;;;7.88;5.03;;;;;;;;;;5052599;28;20059;-74
2021/05/14 00:10:23;;;;;;;6.53;4.85;;;;;;;;;;5063355;28;20029;-74
2021/05/14 00:12:49;;;;;;;7.68;5.13;;;;;;;;;;5072214;28;20484;-74
2021/05/14 00:15:16;;;;;;;6.57;5.25;;;;;;;;;;5070508;28;20082;-74
2021/05/14 00:17:42;;;;;;;9.10;5.60;;;;;;;;;;5061760;28;20091;-74
2021/05/14 00:20:08;;;;;;;8.40;5.38;;;;;;;;;;5050462;28;20108;-75
2021/05/14 00:22:34;;;;;;;8.77;5.20;;;;;;;;;;5057420;28;20035;-74
2021/05/14 00:25:00;;;;;;;5.90;4.70;;;;;;;;;;5082248;28;20024;-74
2021/05/14 00:27:26;;;;;;;7.85;5.28;;;;;;;;;;5071658;28;20099;-74
2021/05/14 00:29:52;;;;;;;6.80;4.90;;;;;;;;;;5072089;28;20078;-74
2021/05/14 00:32:18;;;;;;;6.57;4.53;;;;;;;;;;5070702;28;20052;-74
2021/05/14 00:34:44;;;;;;;6.68;4.70;;;;;;;;;;5071279;28;20033;-74
2021/05/14 00:37:10;;;;;;;7.78;5.30;;;;;;;;;;5072642;28;20025;-73
2021/05/14 00:39:36;;;;;;;6.40;4.63;;;;;;;;;;5071194;28;20024;-74
2021/05/14 00:42:03;;;;;;;5.32;4.25;;;;;;;;;;5071855;28;20036;-73
2021/05/14 00:44:30;;;;;;;8.20;4.97;;;;;;;;;;5071593;28;20028;-73
2021/05/14 00:46:56;;;;;;;7.40;5.05;;;;;;;;;;5071061;28;20027;-74
2021/05/14 00:49:22;;;;;;;6.78;5.00;;;;;;;;;;5070506;28;20152;-74
2021/05/14 00:51:48;;;;;;;5.88;4.40;;;;;;;;;;5071232;28;20025;-74
2021/05/14 00:54:15;;;;;;;5.60;4.32;;;;;;;;;;5069603;28;20115;-75
2021/05/14 00:56:41;;;;;;;6.15;4.50;;;;;;;;;;5070870;28;20032;-74
2021/05/14 00:59:07;;;;;;;6.28;4.68;;;;;;;;;;5061329;28;20048;-75
2021/05/14 01:01:33;;;;;;;8.23;4.90;;;;;;;;;;5063237;28;20052;-75
2021/05/14 01:03:59;;;;;;;7.38;5.05;;;;;;;;;;5071317;28;20020;-75
2021/05/14 01:06:25;;;;;;;6.65;4.90;;;;;;;;;;5070986;28;20101;-75
2021/05/14 01:08:51;;;;;;;7.20;5.38;;;;;;;;;;5070592;28;20028;-75
2021/05/14 01:11:18;;;;;;;7.93;5.18;;;;;;;;;;5071174;28;20056;-75
2021/05/14 01:13:44;;;;;;;5.72;4.47;;;;;;;;;;5070741;28;20036;-75
2021/05/14 01:16:10;;;;;;;5.80;4.30;;;;;;;;;;5070383;28;20025;-75
2021/05/14 01:18:36;;;;;;;6.35;4.47;;;;;;;;;;5070585;28;20058;-75
2021/05/14 01:21:02;;;;;;;4.25;3.85;;;;;;;;;;5071117;28;20550;-75
2021/05/14 01:23:28;;;;;;;4.68;3.92;;;;;;;;;;5080774;28;20117;-75
2021/05/14 01:25:54;;;;;;;5.53;4.15;;;;;;;;;;5074709;28;20017;-75
2021/05/14 01:28:21;;;;;;;5.80;4.22;;;;;;;;;;5071207;28;20052;-75
2021/05/14 01:30:47;;;;;;;7.35;4.35;;;;;;;;;;5069975;28;20390;-75
2021/05/14 01:33:13;;;;;;;8.30;4.60;;;;;;;;;;5070361;28;20078;-75
2021/05/14 01:35:40;;;;;;;6.95;4.45;;;;;;;;;;5070661;28;20025;-75
2021/05/14 01:38:06;;;;;;;7.63;4.53;;;;;;;;;;5070190;28;20473;-75
2021/05/14 01:40:36;;;;;;;6.35;4.80;;;;;;;;;;5070904;28;20043;-75
2021/05/14 01:43:02;;;;;;;5.25;4.43;;;;;;;;;;5070717;28;20021;-75
2021/05/14 01:45:28;;;;;;;5.70;4.80;;;;;;;;;;5069783;28;20078;-75
2021/05/14 01:47:54;;;;;;;6.55;4.32;;;;;;;;;;5070909;28;20038;-75
2021/05/14 01:50:20;;;;;;;9.32;4.53;;;;;;;;;;5050412;28;20475;-74
2021/05/14 01:52:46;;;;;;;7.13;4.20;;;;;;;;;;5064646;28;20054;-74
2021/05/14 01:55:12;;;;;;;4.78;3.80;;;;;;;;;;5070860;28;20088;-74
2021/05/14 01:57:42;;;;;;;6.93;4.85;;;;;;;;;;5069872;28;20029;-73
2021/05/14 02:00:09;;;;;;;5.10;4.15;;;;;;;;;;5051367;28;20056;-73
2021/05/14 02:02:35;;;;;;;4.80;4.05;;;;;;;;;;5071294;28;20020;-74
2021/05/14 02:05:02;;;;;;;7.13;4.38;;;;;;;;;;5052906;28;20500;-74
2021/05/14 02:07:28;;;;;;;6.55;4.20;;;;;;;;;;5068567;28;20021;-74
2021/05/14 02:09:54;;;;;;;5.88;4.28;;;;;;;;;;5070362;28;20033;-74
2021/05/14 02:12:20;;;;;;;4.78;4.13;;;;;;;;;;5070851;28;20478;-74
2021/05/14 02:14:46;;;;;;;5.13;4.32;;;;;;;;;;5069765;28;20362;-74
2021/05/14 02:17:12;;;;;;;4.70;3.97;;;;;;;;;;5072832;28;20108;-74
2021/05/14 02:19:41;;;;;;;5.95;4.10;;;;;;;;;;5075026;28;20025;-74
2021/05/14 02:22:07;;;;;;;4.30;3.60;;;;;;;;;;5073909;28;20055;-74
2021/05/14 02:24:33;;;;;;;5.70;3.65;;;;;;;;;;5088446;28;20021;-74
2021/05/14 02:26:59;;;;;;;5.63;3.80;;;;;;;;;;5074148;28;20494;-74
2021/05/14 02:29:26;;;;;;;5.43;3.90;;;;;;;;;;5073735;28;20026;-74
2021/05/14 02:31:52;;;;;;;5.07;4.32;;;;;;;;;;5074913;28;20032;-74
2021/05/14 02:34:18;;;;;;;7.30;4.25;;;;;;;;;;5066782;28;20025;-74
2021/05/14 02:36:44;;;;;;;5.57;4.65;;;;;;;;;;5067865;28;20050;-74
2021/05/14 02:39:10;;;;;;;6.05;4.60;;;;;;;;;;5074065;28;20020;-74
2021/05/14 02:41:36;;;;;;;8.55;4.85;;;;;;;;;;5054807;28;20112;-74
2021/05/14 02:44:03;;;;;;;7.13;4.13;;;;;;;;;;5069966;28;20020;-74
2021/05/14 02:46:29;;;;;;;4.90;3.90;;;;;;;;;;5073958;28;20025;-74
2021/05/14 02:48:55;;;;;;;4.55;3.70;;;;;;;;;;5073044;28;20455;-74
2021/05/14 02:51:21;;;;;;;3.75;3.25;;;;;;;;;;5073207;28;20422;-74
2021/05/14 02:53:47;;;;;;;7.25;3.50;;;;;;;;;;5064077;28;20020;-74
2021/05/14 02:56:13;;;;;;;3.47;3.17;;;;;;;;;;5073772;28;20028;-74
2021/05/14 02:58:39;;;;;;;9.52;5.25;;;;;;;;;;5073156;28;20047;-73
2021/05/14 03:01:05;;;;;;;14.85;7.47;;;;;;;;;;5073151;28;20075;-74
2021/05/14 03:03:31;;;;;;;12.25;5.40;;;;;;;;;;5074281;28;20028;-74
2021/05/14 03:05:58;;;;;;;8.05;4.05;;;;;;;;;;5073160;28;20475;-74
2021/05/14 03:08:24;;;;;;;6.50;4.57;;;;;;;;;;5073232;28;20107;-73
2021/05/14 03:10:50;;;;;;;8.32;4.40;;;;;;;;;;5073469;28;20835;-73
2021/05/14 03:13:16;;;;;;;7.13;4.40;;;;;;;;;;5072599;28;20422;-73
2021/05/14 03:15:42;;;;;;;8.38;4.28;;;;;;;;;;5073622;28;20062;-75
2021/05/14 03:18:08;;;;;;;7.68;4.00;;;;;;;;;;5073018;28;20051;-74
2021/05/14 03:20:34;;;;;;;5.57;4.22;;;;;;;;;;5071647;28;20386;-73
2021/05/14 03:23:00;;;;;;;4.53;3.72;;;;;;;;;;5080301;28;20453;-73
2021/05/14 03:25:26;;;;;;;3.85;3.20;;;;;;;;;;5080796;28;20024;-74
2021/05/14 03:27:52;;;;;;;6.00;3.55;;;;;;;;;;5071080;28;20025;-73
2021/05/14 03:30:18;;;;;;;6.20;2.75;;;;;;;;;;5072980;28;20021;-73
2021/05/14 03:32:45;;;;;;;6.55;3.65;;;;;;;;;;5073185;28;20032;-73
2021/05/14 03:35:11;;;;;;;5.57;4.10;;;;;;;;;;5071795;28;20048;-73
2021/05/14 03:37:37;;;;;;;4.22;2.80;;;;;;;;;;5072180;28;20040;-73
2021/05/14 03:40:14;;;;;;;2.72;2.53;;;;;;;;;;5072744;28;20024;-73
2021/05/14 03:42:41;;;;;;;4.88;2.63;;;;;;;;;;5071836;28;20575;-73
2021/05/14 03:45:07;;;;;;;2.90;2.70;;;;;;;;;;5072721;28;20454;-74
2021/05/14 03:47:33;;;;;;;2.88;2.30;;;;;;;;;;5072232;28;20102;-74
2021/05/14 03:49:59;;;;;;;2.60;2.40;;;;;;;;;;5070812;28;20032;-74
2021/05/14 03:52:25;;;;;;;3.25;2.50;;;;;;;;;;5072803;28;20025;-74
2021/05/14 03:54:51;;;;;;;2.83;2.50;;;;;;;;;;5071869;28;20131;-74
2021/05/14 03:57:18;;;;;;;3.72;2.70;;;;;;;;;;5071494;28;20470;-73
2021/05/14 03:59:44;;;;;;;2.53;2.30;;;;;;;;;;5071385;28;20037;-73
2021/05/14 04:02:11;;;;;;;2.58;2.38;;;;;;;;;;5072319;28;20167;-73
2021/05/14 04:04:37;;;;;;;2.42;2.22;;;;;;;;;;5072935;28;20039;-73
2021/05/14 04:07:05;;;;;;;4.07;2.70;;;;;;;;;;5071693;28;20036;-73
2021/05/14 04:09:35;;;;;;;4.00;3.15;;;;;;;;;;5072646;28;20474;-73
2021/05/14 04:14:34;;;;;;;3.08;2.60;;;;;;;;;;5071896;28;20036;-74
2021/05/14 04:17:01;;;;;;;2.80;2.60;;;;;;;;;;5072643;28;20028;-73
2021/05/14 04:19:27;;;;;;;3.17;2.55;;;;;;;;;;5072163;28;20036;-73
2021/05/14 04:21:54;;;;;;;2.42;2.22;;;;;;;;;;5070852;28;20386;-74
2021/05/14 04:24:20;;;;;;;2.67;2.17;;;;;;;;;;5086919;28;20053;-75
2021/05/14 04:26:47;;;;;;;2.30;2.20;;;;;;;;;;5071939;28;20025;-74
2021/05/14 04:29:13;;;;;;;2.90;2.60;;;;;;;;;;5071477;28;20028;-74
2021/05/14 04:31:41;;;;;;;3.88;2.78;;;;;;;;;;5071855;28;20441;-73
2021/05/14 04:34:08;;;;;;;3.40;3.10;;;;;;;;;;5071325;28;20017;-73
2021/05/14 04:36:34;;;;;;;4.25;3.00;;;;;;;;;;5070347;28;20028;-74
2021/05/14 04:39:00;;;;;;;3.72;2.50;;;;;;;;;;5070087;28;20167;-75
2021/05/14 04:41:26;;;;;;;2.85;2.55;;;;;;;;;;5068921;28;20044;-75
2021/05/14 04:43:52;;;;;;;2.78;2.58;;;;;;;;;;5071333;28;20382;-75
2021/05/14 04:46:18;;;;;;;2.83;2.30;;;;;;;;;;5071708;28;20330;-75
2021/05/14 04:48:44;;;;;;;2.70;2.50;;;;;;;;;;5065678;28;20049;-76
2021/05/14 04:51:10;;;;;;;3.20;2.90;;;;;;;;;;5068656;28;20098;-75
2021/05/14 04:53:37;;;;;;;4.05;3.20;;;;;;;;;;5062643;28;20028;-75
2021/05/14 04:56:04;;;;;;;4.15;3.30;;;;;;;;;;5061731;28;20122;-76
2021/05/14 04:58:30;;;;;;;5.00;3.50;;;;;;;;;;5068304;28;20020;-75
2021/05/14 05:00:56;;;;;;;5.60;3.67;;;;;;;;;;5064215;28;20463;-75
2021/05/14 05:03:22;;;;;;;3.78;3.35;;;;;;;;;;5069816;28;20484;-75
2021/05/14 05:05:50;;;;;;;6.03;4.53;;;;;;;;;;5067772;28;20020;-76
2021/05/14 05:08:16;;;;;;;6.60;4.70;;;;;;;;;;5069921;28;20485;-76
2021/05/14 05:10:42;;;;;;;3.67;3.10;;;;;;;;;;5080366;28;20531;-75
2021/05/14 05:13:08;;;;;;;3.58;3.08;;;;;;;;;;5063746;28;20505;-75
2021/05/14 05:15:34;;;;;;;2.90;2.70;;;;;;;;;;5071144;28;20035;-76
2021/05/14 05:18:00;;;;;;;4.40;2.83;;;;;;;;;;5070856;28;20094;-76
2021/05/14 05:20:26;;;;;;;2.83;2.40;;;;;;;;;;5069080;28;20040;-76
2021/05/14 05:22:52;;;;;;;3.55;2.28;;;;;;;;;;5077095;28;20446;-76
2021/05/14 05:25:19;;;;;;;2.70;2.28;;;;;;;;;;5068918;28;20032;-76
2021/05/14 05:27:45;;;;;;;4.28;2.60;;;;;;;;;;5069157;28;20028;-75
2021/05/14 05:30:11;;;;;;;4.68;3.10;;;;;;;;;;5071240;28;20020;-76
2021/05/14 05:32:37;;;;;;;3.88;3.45;;;;;;;;;;5067705;28;20028;-76
2021/05/14 05:35:03;;;;;;;4.10;3.70;;;;;;;;;;5060784;28;20038;-75
2021/05/14 05:37:29;;;;;;;2.97;2.78;;;;;;;;;;5070045;28;20070;-75
2021/05/14 05:39:55;;;;;;;2.75;2.55;;;;;;;;;;5070068;28;20132;-75
2021/05/14 05:42:21;;;;;;;2.10;2.00;;;;;;;;;;5068885;28;20044;-74
2021/05/14 05:44:47;;;;;;;2.47;2.28;;;;;;;;;;5058689;28;20067;-74
2021/05/14 05:47:13;;;;;;;2.30;2.20;;;;;;;;;;5067956;28;20025;-73
2021/05/14 05:49:39;;;;;;;2.78;2.50;;;;;;;;;;5060151;28;20017;-75
2021/05/14 05:52:06;;;;;;;2.08;1.98;;;;;;;;;;5059222;28;20043;-75
2021/05/14 05:54:32;;;;;;;2.17;2.00;;;;;;;;;;5067849;28;20497;-76
2021/05/14 05:57:00;;;;;;;3.20;2.45;;;;;;;;;;5052806;28;20475;-75
2021/05/14 05:59:26;;;;;;;2.10;2.00;;;;;;;;;;5053296;28;20020;-75
2021/05/14 06:01:53;;;;;;;2.15;2.05;;;;;;;;;;5061058;28;20418;-76
2021/05/14 06:04:19;;;;;;;2.33;2.17;;;;;;;;;;5064189;28;20017;-76
2021/05/14 06:06:45;;;;;;;1.45;1.35;;;;;;;;;;5054335;28;20534;-76
2021/05/14 06:09:11;;;;;;;1.75;1.60;;;;;;;;;;5059739;28;20127;-67
2021/05/14 06:11:37;;;;;;;2.17;1.55;;;;;;;;;;5064615;28;20055;-66
2021/05/14 06:14:03;;;;;;;2.45;1.50;;;;;;;;;;5061560;28;20450;-67
2021/05/14 06:16:30;;;;;;;0.80;0.80;;;;;;;;;;5061197;28;20042;-67
2021/05/14 06:19:13;;;;;;;1.50;1.40;;;;;;;;;;5059466;28;20044;-67
2021/05/14 06:21:45;;;;;;;2.55;1.20;;;;;;;;;;5060130;28;20301;-67
2021/05/14 06:24:11;;;;;;;8.20;5.88;;;;;;;;;;5067929;28;20150;-66
2021/05/14 06:26:37;;;;;;;3.80;3.30;;;;;;;;;;5067394;28;20095;-66
2021/05/14 06:29:04;;;;;;;3.88;3.38;;;;;;;;;;5065366;28;20033;-66
2021/05/14 06:31:30;;;;;;;2.60;2.40;;;;;;;;;;5055640;28;20020;-66
2021/05/14 06:33:56;;;;;;;2.20;1.50;;;;;;;;;;5055034;28;20047;-65
2021/05/14 06:36:22;;;;;;;1.58;1.48;;;;;;;;;;5062711;28;20024;-66
2021/05/14 06:38:49;;;;;;;1.23;1.10;;;;;;;;;;5061002;28;20102;-67
2021/05/14 06:41:15;;;;;;;1.40;1.30;;;;;;;;;;5063399;28;20028;-67
2021/05/14 06:43:41;;;;;;;2.20;1.65;;;;;;;;;;5064717;28;20032;-66
2021/05/14 06:46:07;;;;;;;2.95;2.60;;;;;;;;;;5062424;28;20024;-72
2021/05/14 06:48:33;;;;;;;3.50;2.65;;;;;;;;;;5067009;28;20040;-72
2021/05/14 06:50:59;;;;;;;4.20;2.60;;;;;;;;;;5067460;28;20046;-72
2021/05/14 06:53:26;;;;;;;3.05;2.17;;;;;;;;;;5047253;28;20114;-73
2021/05/14 06:55:52;;;;;;;2.47;1.67;;;;;;;;;;5050413;28;20033;-73
2021/05/14 06:58:18;;;;;;;2.58;1.70;;;;;;;;;;5056346;28;20507;-73
2021/05/14 07:00:44;;;;;;;2.13;1.63;;;;;;;;;;5064326;28;20040;-73
2021/05/14 07:03:10;;;;;;;1.88;1.70;;;;;;;;;;5064644;28;20071;-73
2021/05/14 07:05:36;;;;;;;1.60;1.50;;;;;;;;;;5068421;28;20662;-73
2021/05/14 07:08:02;;;;;;;1.60;1.50;;;;;;;;;;5069024;28;20024;-73
2021/05/14 07:10:29;;;;;;;1.67;1.48;;;;;;;;;;5069762;28;20063;-73
2021/05/14 07:12:55;;;;;;;1.73;0.73;;;;;;;;;;5067266;28;20083;-73
2021/05/14 07:15:21;;;;;;;1.25;1.05;;;;;;;;;;5073100;28;20052;-66
2021/05/14 07:17:48;;;;;;;1.25;1.15;;;;;;;;;;5070496;28;20032;-66
2021/05/14 07:20:14;;;;;;;0.63;0.50;;;;;;;;;;5071322;28;20062;-66
2021/05/14 07:22:40;;;;;;;0.60;0.60;;;;;;;;;;5072992;28;20038;-66
2021/05/14 07:25:06;;;;;;;1.00;0.90;;;;;;;;;;5065624;28;20051;-66
2021/05/14 07:27:32;;;;;;;1.92;1.10;;;;;;;;;;5070444;28;20066;-66
2021/05/14 07:29:58;;;;;;;1.45;1.10;;;;;;;;;;5065423;28;20817;-67
2021/05/14 07:32:25;;;;;;;1.55;1.33;;;;;;;;;;5067284;28;20020;-66
2021/05/14 07:34:55;;;;;;;1.35;1.05;;;;;;;;;;5062091;28;20067;-66
2021/05/14 07:37:21;;;;;;;1.30;1.20;;;;;;;;;;5063448;28;21679;-66
2021/05/14 07:39:47;;;;;;;1.45;0.90;;;;;;;;;;5075316;28;20034;-66
2021/05/14 07:42:13;;;;;;;5.47;1.92;;;;;;;;;;5069683;28;20064;-66
2021/05/14 07:44:39;;;;;;;4.65;2.65;;;;;;;;;;5075879;28;20032;-66
2021/05/14 07:47:05;;;;;;;3.33;2.50;;;;;;;;;;5077720;28;20380;-66
2021/05/14 07:49:31;;;;;;;1.90;1.70;;;;;;;;;;5072523;28;20399;-73
2021/05/14 07:51:57;;;;;;;5.25;2.40;;;;;;;;;;5077292;28;20031;-73
2021/05/14 07:54:23;;;;;;;1.98;1.80;;;;;;;;;;5069853;28;20191;-73
2021/05/14 07:56:49;;;;;;;2.08;1.88;;;;;;;;;;5075905;28;20043;-73
2021/05/14 07:59:16;;;;;;;1.63;1.50;;;;;;;;;;5083070;28;20093;-73
2021/05/14 08:01:42;;;;;;;2.00;1.60;;;;;;;;;;5075299;28;20036;-74
2021/05/14 08:04:08;;;;;;;1.52;1.42;;;;;;;;;;5077191;28;20024;-74
2021/05/14 08:06:34;;;;;;;1.88;1.67;;;;;;;;;;5074159;28;20105;-73
2021/05/14 08:09:05;;;;;;;2.15;1.98;;;;;;;;;;5072324;28;20390;-74
2021/05/14 08:11:31;;;;;;;2.10;1.92;;;;;;;;;;5067169;28;20480;-74
2021/05/14 08:13:57;;;;;;;1.63;1.52;;;;;;;;;;5080762;28;20028;-73
2021/05/14 08:16:23;;;;;;;1.23;1.23;;;;;;;;;;5080823;28;20064;-73
2021/05/14 08:18:51;;;;;;;5.80;1.80;;;;;;;;;;5074921;28;20029;-73
2021/05/14 08:21:17;;;;;;;1.80;1.70;;;;;;;;;;5078266;28;20031;-73
2021/05/14 08:23:43;;;;;;;1.88;1.60;;;;;;;;;;5080951;28;20043;-73
2021/05/14 08:26:10;;;;;;;2.20;1.92;;;;;;;;;;5074349;28;20020;-73
2021/05/14 08:28:36;;;;;;;2.25;2.05;;;;;;;;;;5074592;28;20032;-73
2021/05/14 08:31:02;;;;;;;2.88;2.00;;;;;;;;;;5077228;28;20028;-73
2021/05/14 08:33:28;;;;;;;2.95;2.40;;;;;;;;;;5068809;28;20151;-74
2021/05/14 08:35:55;;;;;;;3.00;2.70;;;;;;;;;;5065682;28;20041;-74
2021/05/14 08:38:21;;;;;;;3.35;2.40;;;;;;;;;;5070024;28;20101;-73
2021/05/14 08:40:47;;;;;;;2.20;2.10;;;;;;;;;;5075639;28;20078;-73
2021/05/14 08:43:13;;;;;;;2.95;2.50;;;;;;;;;;5067497;28;20103;-73
2021/05/14 08:45:39;;;;;;;3.20;2.45;;;;;;;;;;5076732;28;20099;-73
2021/05/14 08:48:11;;;;;;;6.55;2.90;;;;;;;;;;5068037;28;20179;-73
2021/05/14 08:50:37;;;;;;;2.67;2.28;;;;;;;;;;5068175;28;20036;-73
2021/05/14 08:53:04;;;;;;;4.20;2.20;;;;;;;;;;5076055;28;20074;-72
2021/05/14 08:55:30;;;;;;;3.53;2.10;;;;;;;;;;5053905;28;20421;-73
2021/05/14 08:57:56;;;;;;;3.20;2.20;;;;;;;;;;5055892;28;20036;-74
2021/05/14 09:00:22;;;;;;;2.67;2.10;;;;;;;;;;5064455;28;21698;-75
2021/05/14 09:02:50;;;;;;;3.35;2.00;;;;;;;;;;5060826;28;20024;-75
2021/05/14 09:05:26;;;;;;;3.37;3.00;;;;;;;;;;5064809;28;20028;-75
2021/05/14 09:07:52;;;;;;;3.60;3.30;;;;;;;;;;5063488;28;20039;-75
2021/05/14 09:10:18;;;;;;;2.15;1.95;;;;;;;;;;5064787;28;20052;-74
2021/05/14 09:12:44;;;;;;;4.25;1.83;;;;;;;;;;5063503;28;20028;-75
2021/05/14 09:15:49;;;;;;;7.22;3.25;;;;;;;;;;5063689;28;20044;-74
2021/05/14 09:18:18;;;;;;;4.88;1.90;;;;;;;;;;4975961;28;20034;-74
2021/05/14 09:20:54;;;;;;;6.20;3.53;;;;;;;;;;4976929;28;20068;-73
2021/05/14 09:23:20;;;;;;;4.05;2.60;;;;;;;;;;5035692;28;20040;-74
2021/05/14 09:25:57;;;;;;;2.28;2.08;;;;;;;;;;5063034;28;20105;-73
2021/05/14 09:28:24;;;;;;;2.42;2.22;;;;;;;;;;5064122;28;20021;-74
2021/05/14 09:31:06;;;;;;;3.55;2.70;;;;;;;;;;5063498;28;20032;-66
2021/05/14 09:33:32;;;;;;;3.30;2.30;;;;;;;;;;5060546;28;22107;-66
2021/05/14 09:36:01;;;;;;;3.33;2.45;;;;;;;;;;5054817;28;20044;-66
2021/05/14 09:38:27;;;;;;;2.67;2.40;;;;;;;;;;5045449;28;20033;-67
2021/05/14 09:40:54;;;;;;;1.92;1.83;;;;;;;;;;5065666;28;20127;-66
2021/05/14 09:43:23;;;;;;;2.65;1.63;;;;;;;;;;5065451;28;20021;-66
2021/05/14 09:45:50;;;;;;;2.13;1.95;;;;;;;;;;5066340;28;20027;-66
2021/05/14 09:48:18;;;;;;;1.98;1.80;;;;;;;;;;5066198;28;20056;-66
2021/05/14 09:50:44;;;;;;;2.47;1.90;;;;;;;;;;5052914;28;20071;-66
2021/05/14 09:53:11;;;;;;;2.30;2.20;;;;;;;;;;5049343;28;20033;-66
2021/05/14 09:55:38;;;;;;;1.80;1.70;;;;;;;;;;5048944;28;20032;-66
2021/05/14 09:58:11;;;;;;;2.83;2.53;;;;;;;;;;5049793;28;20036;-66
2021/05/14 10:00:37;;;;;;;2.63;1.88;;;;;;;;;;5062876;28;20182;-66
2021/05/14 10:03:04;;;;;;;4.00;2.38;;;;;;;;;;5052236;28;20533;-66
2021/05/14 10:05:30;;;;;;;2.85;2.38;;;;;;;;;;5059143;28;20035;-65
2021/05/14 10:08:00;;;;;;;2.88;2.38;;;;;;;;;;5063688;28;20029;-66
2021/05/14 10:10:26;;;;;;;3.45;2.20;;;;;;;;;;5065684;28;20020;-66
2021/05/14 10:12:52;;;;;;;3.22;2.10;;;;;;;;;;5056848;28;20047;-65
2021/05/14 10:15:19;;;;;;;3.00;2.28;;;;;;;;;;5062910;28;20055;-66
2021/05/14 10:17:48;;;;;;;4.85;2.63;;;;;;;;;;5064152;28;20032;-65
2021/05/14 10:20:15;;;;;;;2.85;2.35;;;;;;;;;;5064590;28;20375;-65
2021/05/14 10:22:41;;;;;;;8.10;2.30;;;;;;;;;;5058791;28;20024;-65
2021/05/14 10:25:07;;;;;;;2.85;2.58;;;;;;;;;;5069218;28;20031;-65
2021/05/14 10:27:41;;;;;;;6.20;2.22;;;;;;;;;;5060630;28;20028;-65
2021/05/14 10:30:07;;;;;;;2.38;2.17;;;;;;;;;;5058569;28;20066;-65
2021/05/14 10:32:46;;;;;;;2.60;2.40;;;;;;;;;;5061299;28;20043;-65
2021/05/14 10:35:13;;;;;;;2.50;2.30;;;;;;;;;;5056342;28;20025;-73
2021/05/14 10:37:49;;;;;;;2.60;2.40;;;;;;;;;;5064531;28;20036;-65
2021/05/14 10:40:42;;;;;;;5.28;4.65;;;;;;;;;;5061456;28;20094;-65
2021/05/14 10:43:11;;;;;;;5.75;3.42;;;;;;;;;;5064152;28;20093;-65
2021/05/14 10:45:41;;;;;;;3.95;3.40;;;;;;;;;;5078298;28;20079;-67
2021/05/14 10:48:17;;;;;;;3.38;3.08;;;;;;;;;;5064889;28;20473;-66
2021/05/14 10:50:54;;;;;;;3.00;2.70;;;;;;;;;;5066782;28;20071;-65
2021/05/14 10:53:20;;;;;;;3.13;2.75;;;;;;;;;;5067123;28;20033;-71
2021/05/14 10:55:47;;;;;;;4.13;2.70;;;;;;;;;;5068432;28;20477;-72
2021/05/14 10:58:41;;;;;;;3.58;2.72;;;;;;;;;;5069039;28;20021;-73
2021/05/14 11:01:07;;;;;;;4.03;2.67;;;;;;;;;;5063592;28;20114;-72
2021/05/14 11:03:34;;;;;;;2.85;2.63;;;;;;;;;;5067701;28;20040;-73
2021/05/14 11:06:17;;;;;;;3.28;2.50;;;;;;;;;;5070693;28;21240;-72
2021/05/14 11:08:45;;;;;;;3.13;2.35;;;;;;;;;;5072484;28;20025;-73
2021/05/14 11:11:13;;;;;;;9.75;2.60;;;;;;;;;;5069805;28;20028;-73
2021/05/14 11:13:40;;;;;;;4.00;2.60;;;;;;;;;;5067822;28;20035;-73
2021/05/14 11:16:24;;;;;;;3.40;2.38;;;;;;;;;;5068576;28;20047;-73
2021/05/14 11:18:51;;;;;;;3.75;2.22;;;;;;;;;;5069203;28;20040;-73
2021/05/14 11:21:18;;;;;;;6.88;2.03;;;;;;;;;;5057872;28;20802;-65
2021/05/14 11:23:44;;;;;;;1.93;1.70;;;;;;;;;;5067387;28;20081;-65
2021/05/14 11:26:17;;;;;;;16.40;2.53;;;;;;;;;;5059012;28;20057;-65
2021/05/14 11:28:47;;;;;;;5.07;2.45;;;;;;;;;;5069488;28;20358;-65
2021/05/14 11:31:17;;;;;;;1.65;1.55;;;;;;;;;;5078394;28;20081;-65
2021/05/14 11:33:46;;;;;;;1.60;1.50;;;;;;;;;;5069838;28;20103;-66
2021/05/14 11:36:12;;;;;;;2.78;2.30;;;;;;;;;;5070873;28;20028;-65
2021/05/14 11:38:43;;;;;;;3.38;2.28;;;;;;;;;;5077446;28;20043;-65
2021/05/14 11:41:12;;;;;;;5.68;2.83;;;;;;;;;;5072307;28;20067;-65
2021/05/14 11:43:38;;;;;;;4.25;2.53;;;;;;;;;;5078062;28;20033;-65
2021/05/14 11:46:05;;;;;;;2.83;2.20;;;;;;;;;;5075668;28;20395;-65
2021/05/14 11:48:31;;;;;;;2.60;2.30;;;;;;;;;;5073151;28;20371;-65
2021/05/14 11:50:58;;;;;;;2.42;1.60;;;;;;;;;;5071319;28;20046;-65
2021/05/14 11:53:24;;;;;;;7.70;2.80;;;;;;;;;;5080589;28;20683;-65
2021/05/14 11:55:50;;;;;;;8.15;4.15;;;;;;;;;;5073068;28;20034;-66
2021/05/14 11:58:17;;;;;;;9.77;4.22;;;;;;;;;;5077208;28;20028;-65
2021/05/14 12:00:46;;;;;;;13.95;4.97;;;;;;;;;;5069938;28;20056;-72
2021/05/14 12:03:13;;;;;;;10.30;4.65;;;;;;;;;;5074100;28;20021;-72
2021/05/14 12:05:39;;;;;;;7.40;3.80;;;;;;;;;;5073565;28;20059;-65
2021/05/14 12:08:13;;;;;;;12.05;4.70;;;;;;;;;;5066954;28;20029;-66
2021/05/14 12:10:45;;;;;;;12.02;6.10;;;;;;;;;;5063094;28;20021;-72
2021/05/14 12:13:12;;;;;;;3.63;2.65;;;;;;;;;;5069432;28;20051;-72
2021/05/14 12:15:38;;;;;;;5.90;3.88;;;;;;;;;;5075981;28;20029;-72
2021/05/14 12:18:04;;;;;;;5.40;2.80;;;;;;;;;;5079473;28;20063;-72
2021/05/14 12:20:30;;;;;;;4.18;3.17;;;;;;;;;;5063126;28;20041;-72
2021/05/14 12:22:58;;;;;;;22.42;3.72;;;;;;;;;;5069818;28;20020;-72
2021/05/14 12:25:24;;;;;;;4.97;2.33;;;;;;;;;;5067987;28;20047;-73
2021/05/14 12:27:50;;;;;;;4.18;2.33;;;;;;;;;;5071371;28;20746;-73
2021/05/14 12:30:17;;;;;;;4.20;2.22;;;;;;;;;;5071266;28;20028;-72
2021/05/14 12:32:54;;;;;;;20.88;3.20;;;;;;;;;;5072669;28;20056;-71
2021/05/14 12:35:21;;;;;;;7.50;3.50;;;;;;;;;;5049946;28;21470;-72
2021/05/14 12:38:05;;;;;;;26.30;4.88;;;;;;;;;;5074997;28;20028;-72
2021/05/14 12:40:32;;;;;;;12.55;4.68;;;;;;;;;;5064348;28;20471;-73
2021/05/14 12:43:08;;;;;;;9.77;4.95;;;;;;;;;;5072570;28;20600;-72
2021/05/14 12:45:36;;;;;;;10.93;4.35;;;;;;;;;;5055992;28;20028;-65
2021/05/14 12:48:02;;;;;;;9.17;3.90;;;;;;;;;;5058182;28;20078;-65
2021/05/14 12:50:28;;;;;;;10.07;4.00;;;;;;;;;;5061195;28;20385;-65
2021/05/14 12:52:54;;;;;;;21.00;4.97;;;;;;;;;;5063157;28;20167;-65
2021/05/14 12:55:21;;;;;;;7.50;4.35;;;;;;;;;;5063775;28;20032;-65
2021/05/14 12:57:57;;;;;;;8.05;3.28;;;;;;;;;;5063405;28;20028;-65
2021/05/14 13:00:28;;;;;;;10.27;3.65;;;;;;;;;;5062787;28;20037;-66
2021/05/14 13:03:01;;;;;;;8.77;4.38;;;;;;;;;;5063776;28;20048;-66
2021/05/14 13:05:46;;;;;;;26.00;7.40;;;;;;;;;;5065025;28;20056;-66
2021/05/14 13:08:13;;;;;;;14.00;3.80;;;;;;;;;;5065428;28;20553;-66
2021/05/14 13:10:40;;;;;;;15.57;5.65;;;;;;;;;;5065756;28;20028;-64
2021/05/14 13:13:07;;;;;;;7.00;3.08;;;;;;;;;;5063405;28;20036;-67
2021/05/14 13:15:33;;;;;;;7.88;3.13;;;;;;;;;;5061467;28;20395;-65
2021/05/14 13:17:59;;;;;;;11.30;4.00;;;;;;;;;;5056993;28;20055;-73
2021/05/14 13:20:25;;;;;;;20.40;4.57;;;;;;;;;;5062669;28;20025;-65
2021/05/14 13:22:51;;;;;;;11.35;4.03;;;;;;;;;;5064562;28;20020;-73
2021/05/14 13:25:17;;;;;;;11.68;4.10;;;;;;;;;;5063808;28;20027;-73
2021/05/14 13:27:43;;;;;;;11.88;4.03;;;;;;;;;;5061523;28;20032;-72
2021/05/14 13:30:10;;;;;;;13.05;4.90;;;;;;;;;;5062513;28;20032;-72
2021/05/14 13:32:36;;;;;;;6.68;3.25;;;;;;;;;;5053132;28;20041;-72
2021/05/14 13:35:04;;;;;;;12.30;3.97;;;;;;;;;;5050488;28;20040;-65
2021/05/14 13:37:30;;;;;;;5.63;2.85;;;;;;;;;;5058462;28;20502;-71
2021/05/14 13:39:57;;;;;;;12.68;3.67;;;;;;;;;;5062217;28;20097;-73
2021/05/14 13:42:23;;;;;;;12.18;3.97;;;;;;;;;;5065958;28;20047;-73
2021/05/14 13:44:49;;;;;;;17.95;6.40;;;;;;;;;;5067569;28;20027;-73
2021/05/14 13:47:15;;;;;;;6.80;3.13;;;;;;;;;;5068801;28;20089;-73
2021/05/14 13:49:41;;;;;;;16.60;6.43;;;;;;;;;;5068492;28;20869;-73
2021/05/14 13:52:07;;;;;;;21.65;7.35;;;;;;;;;;5066671;28;20039;-73
2021/05/14 13:54:33;;;;;;;25.60;11.38;;;;;;;;;;5064443;28;20051;-73
2021/05/14 13:56:59;;;;;;;17.38;6.95;;;;;;;;;;5061130;28;20103;-73
2021/05/14 13:59:25;;;;;;;27.25;12.35;;;;;;;;;;5067288;28;20505;-73
2021/05/14 14:01:51;;;;;;;12.07;6.03;;;;;;;;;;5069956;28;20040;-73
2021/05/14 14:04:18;;;;;;;13.93;5.93;;;;;;;;;;5066843;28;20029;-73
2021/05/14 14:06:44;;;;;;;13.77;5.55;;;;;;;;;;5051748;28;20016;-73
2021/05/14 14:09:11;;;;;;;10.98;5.78;;;;;;;;;;5056659;28;20033;-73
2021/05/14 14:11:37;;;;;;;9.57;3.60;;;;;;;;;;5058046;28;20033;-73
2021/05/14 14:14:03;;;;;;;8.45;5.30;;;;;;;;;;5068090;28;20029;-73
2021/05/14 14:16:29;;;;;;;8.60;4.82;;;;;;;;;;5067517;28;20027;-72
2021/05/14 14:18:56;;;;;;;6.05;2.90;;;;;;;;;;5068530;28;20466;-73
2021/05/14 14:21:22;;;;;;;24.88;3.63;;;;;;;;;;5067017;28;20044;-73
2021/05/14 14:23:48;;;;;;;5.07;1.90;;;;;;;;;;5076679;28;20043;-72
2021/05/14 14:26:14;;;;;;;31.17;4.05;;;;;;;;;;5066846;28;20850;-73
2021/05/14 14:28:40;;;;;;;2.28;2.10;;;;;;;;;;5057034;28;20501;-73
2021/05/14 14:31:06;;;;;;;4.93;2.20;;;;;;;;;;5064600;28;20522;-65
2021/05/14 14:33:32;;;;;;;3.50;1.80;;;;;;;;;;5055539;28;20036;-65
2021/05/14 14:35:58;;;;;;;1.88;1.48;;;;;;;;;;5065986;28;20029;-65
2021/05/14 14:38:24;;;;;;;13.73;3.70;;;;;;;;;;5064365;28;20046;-65
2021/05/14 14:40:50;;;;;;;5.53;2.25;;;;;;;;;;5066167;28;20035;-65
2021/05/14 14:43:16;;;;;;;2.33;2.10;;;;;;;;;;5067850;28;20032;-65